KHVR

Havre City-County Airport

Havre, Montana, USA
METAR KHVR 150253Z AUTO 15005KT 10SM CLR 21/04 A2988 RMK AO2 SLP111 T02060039 56003 $
Observed Flight Rules
Aug-15 @ 02:53 UTC (44 minutes ago) Visual Flight Rules
Wind Visibility Clouds
150° at 5 knots 10 miles
  • Clear skies
Temperatures Readings
Current 21°C / 70°F
Dewpoint 4°C / 39°F
Humidity 33%
Altimeter 29.88" Hg
Pressure 1011.1 hPa
Elevation 787
METAR KHVR 150253Z AUTO 15005KT 10SM CLR 21/04 A2988 RMK AO2 SLP111 T02060039 56003 $
Observed Flight Rules
Aug-15 @ 02:53 UTC
(44 minutes ago)
VFR
Wind Visibility
150° at 5 knots 10 miles
Clouds
  • Clear skies
Temperature Dewpoint
21°C / 70°F 4°C / 39°F
Humidity Altimeter Pressure
33% 29.88" Hg 1011.1 hPa